sensor_id;sensor_type;location;lat;lon;timestamp;temperature;humidity
19206;DHT22;59358;52.134;5.596;2024-03-02T00:00:49;9.30;99.90
19206;DHT22;59358;52.134;5.596;2024-03-02T00:03:17;9.40;99.90
19206;DHT22;59358;52.134;5.596;2024-03-02T00:05:44;9.40;99.90
19206;DHT22;59358;52.134;5.596;2024-03-02T00:08:21;9.40;99.90
19206;DHT22;59358;52.134;5.596;2024-03-02T00:10:49;9.40;99.90
19206;DHT22;59358;52.134;5.596;2024-03-02T00:13:20;9.50;99.90
19206;DHT22;59358;52.134;5.596;2024-03-02T00:15:51;9.50;99.90
19206;DHT22;59358;52.134;5.596;2024-03-02T00:18:20;9.40;99.90
19206;DHT22;59358;52.134;5.596;2024-03-02T00:20:47;9.40;99.90
19206;DHT22;59358;52.134;5.596;2024-03-02T00:23:15;9.40;99.90
19206;DHT22;59358;52.134;5.596;2024-03-02T00:25:44;9.40;99.90
19206;DHT22;59358;52.134;5.596;2024-03-02T00:28:14;9.40;99.90
19206;DHT22;59358;52.134;5.596;2024-03-02T00:30:56;9.50;99.90
19206;DHT22;59358;52.134;5.596;2024-03-02T00:33:25;9.50;99.90
19206;DHT22;59358;52.134;5.596;2024-03-02T00:35:53;9.40;99.90
19206;DHT22;59358;52.134;5.596;2024-03-02T00:38:20;9.50;99.90
19206;DHT22;59358;52.134;5.596;2024-03-02T00:40:48;9.50;99.90
19206;DHT22;59358;52.134;5.596;2024-03-02T00:43:38;9.40;99.90
19206;DHT22;59358;52.134;5.596;2024-03-02T00:46:07;9.40;99.90
19206;DHT22;59358;52.134;5.596;2024-03-02T00:48:34;9.40;99.90
19206;DHT22;59358;52.134;5.596;2024-03-02T00:51:01;9.30;99.90
19206;DHT22;59358;52.134;5.596;2024-03-02T00:53:29;9.30;99.90
19206;DHT22;59358;52.134;5.596;2024-03-02T00:55:56;9.30;99.90
19206;DHT22;59358;52.134;5.596;2024-03-02T00:58:23;9.30;99.90
19206;DHT22;59358;52.134;5.596;2024-03-02T01:00:51;9.20;99.90
19206;DHT22;59358;52.134;5.596;2024-03-02T01:03:19;9.10;99.90
19206;DHT22;59358;52.134;5.596;2024-03-02T01:05:45;9.10;99.90
19206;DHT22;59358;52.134;5.596;2024-03-02T01:08:12;9.10;99.90
19206;DHT22;59358;52.134;5.596;2024-03-02T01:10:39;9.20;99.90
19206;DHT22;59358;52.134;5.596;2024-03-02T01:13:06;9.00;99.90
19206;DHT22;59358;52.134;5.596;2024-03-02T01:15:33;8.90;99.90
19206;DHT22;59358;52.134;5.596;2024-03-02T01:18:00;8.80;99.90
19206;DHT22;59358;52.134;5.596;2024-03-02T01:20:28;8.70;99.90
19206;DHT22;59358;52.134;5.596;2024-03-02T01:22:55;8.70;99.90
19206;DHT22;59358;52.134;5.596;2024-03-02T01:25:22;8.60;99.90
19206;DHT22;59358;52.134;5.596;2024-03-02T01:27:49;8.60;99.90
19206;DHT22;59358;52.134;5.596;2024-03-02T01:30:15;8.60;99.90
19206;DHT22;59358;52.134;5.596;2024-03-02T01:32:42;8.60;99.90
19206;DHT22;59358;52.134;5.596;2024-03-02T01:35:09;8.60;99.90
19206;DHT22;59358;52.134;5.596;2024-03-02T01:37:37;8.60;99.90
19206;DHT22;59358;52.134;5.596;2024-03-02T01:40:05;8.60;99.90
19206;DHT22;59358;52.134;5.596;2024-03-02T01:42:35;8.60;99.90
19206;DHT22;59358;52.134;5.596;2024-03-02T01:45:03;8.50;99.90
19206;DHT22;59358;52.134;5.596;2024-03-02T01:47:30;8.40;99.90
19206;DHT22;59358;52.134;5.596;2024-03-02T01:49:57;8.40;99.90
19206;DHT22;59358;52.134;5.596;2024-03-02T01:52:25;8.40;99.90
19206;DHT22;59358;52.134;5.596;2024-03-02T01:54:53;8.40;99.90
19206;DHT22;59358;52.134;5.596;2024-03-02T01:57:20;8.30;99.90
19206;DHT22;59358;52.134;5.596;2024-03-02T01:59:47;8.20;99.90
19206;DHT22;59358;52.134;5.596;2024-03-02T02:02:14;8.30;99.90
19206;DHT22;59358;52.134;5.596;2024-03-02T02:04:41;8.30;99.90
19206;DHT22;59358;52.134;5.596;2024-03-02T02:07:08;8.20;99.90
19206;DHT22;59358;52.134;5.596;2024-03-02T02:09:34;8.20;99.90
19206;DHT22;59358;52.134;5.596;2024-03-02T02:12:03;8.10;99.90
19206;DHT22;59358;52.134;5.596;2024-03-02T02:14:32;8.10;99.90
19206;DHT22;59358;52.134;5.596;2024-03-02T02:16:59;8.10;99.90
19206;DHT22;59358;52.134;5.596;2024-03-02T02:19:26;8.10;99.90
19206;DHT22;59358;52.134;5.596;2024-03-02T02:21:54;8.10;99.90
19206;DHT22;59358;52.134;5.596;2024-03-02T02:24:21;8.00;99.90
19206;DHT22;59358;52.134;5.596;2024-03-02T02:26:47;7.90;99.90
19206;DHT22;59358;52.134;5.596;2024-03-02T02:29:14;7.90;99.90
19206;DHT22;59358;52.134;5.596;2024-03-02T02:31:41;7.80;99.90
19206;DHT22;59358;52.134;5.596;2024-03-02T02:34:08;7.80;99.90
19206;DHT22;59358;52.134;5.596;2024-03-02T02:36:38;7.80;99.90
19206;DHT22;59358;52.134;5.596;2024-03-02T02:39:09;7.80;99.90
19206;DHT22;59358;52.134;5.596;2024-03-02T02:41:37;7.80;99.90
19206;DHT22;59358;52.134;5.596;2024-03-02T02:44:04;7.80;99.90
19206;DHT22;59358;52.134;5.596;2024-03-02T02:46:31;7.70;99.90
19206;DHT22;59358;52.134;5.596;2024-03-02T02:48:58;7.70;99.90
19206;DHT22;59358;52.134;5.596;2024-03-02T02:51:25;7.70;99.90
19206;DHT22;59358;52.134;5.596;2024-03-02T02:53:52;7.60;99.90
19206;DHT22;59358;52.134;5.596;2024-03-02T02:56:20;7.60;99.90
19206;DHT22;59358;52.134;5.596;2024-03-02T02:58:47;7.50;99.90
19206;DHT22;59358;52.134;5.596;2024-03-02T03:01:15;7.50;99.90
19206;DHT22;59358;52.134;5.596;2024-03-02T03:03:43;7.40;99.90
19206;DHT22;59358;52.134;5.596;2024-03-02T03:06:11;7.50;99.90
19206;DHT22;59358;52.134;5.596;2024-03-02T03:08:38;7.40;99.90
19206;DHT22;59358;52.134;5.596;2024-03-02T03:11:05;7.40;99.90
19206;DHT22;59358;52.134;5.596;2024-03-02T03:13:34;7.40;99.90
19206;DHT22;59358;52.134;5.596;2024-03-02T03:16:00;7.40;99.90
19206;DHT22;59358;52.134;5.596;2024-03-02T03:18:28;7.40;99.90
19206;DHT22;59358;52.134;5.596;2024-03-02T03:20:55;7.30;99.90
19206;DHT22;59358;52.134;5.596;2024-03-02T03:23:22;7.30;99.90
19206;DHT22;59358;52.134;5.596;2024-03-02T03:25:52;7.30;99.90
19206;DHT22;59358;52.134;5.596;2024-03-02T03:28:18;7.20;99.90
19206;DHT22;59358;52.134;5.596;2024-03-02T03:30:47;7.20;99.90
19206;DHT22;59358;52.134;5.596;2024-03-02T03:33:13;7.20;99.90
19206;DHT22;59358;52.134;5.596;2024-03-02T03:35:40;7.20;99.90
19206;DHT22;59358;52.134;5.596;2024-03-02T03:38:07;7.20;99.90
19206;DHT22;59358;52.134;5.596;2024-03-02T03:40:34;7.20;99.90
19206;DHT22;59358;52.134;5.596;2024-03-02T03:43:01;7.20;99.90
19206;DHT22;59358;52.134;5.596;2024-03-02T03:45:27;7.20;99.90
19206;DHT22;59358;52.134;5.596;2024-03-02T03:47:57;7.20;99.90
19206;DHT22;59358;52.134;5.596;2024-03-02T03:50:24;7.20;99.90
19206;DHT22;59358;52.134;5.596;2024-03-02T03:52:50;7.20;99.90
19206;DHT22;59358;52.134;5.596;2024-03-02T03:55:17;7.20;99.90
19206;DHT22;59358;52.134;5.596;2024-03-02T03:57:44;7.20;99.90
19206;DHT22;59358;52.134;5.596;2024-03-02T04:00:12;7.10;99.90
19206;DHT22;59358;52.134;5.596;2024-03-02T04:02:39;7.00;99.90
19206;DHT22;59358;52.134;5.596;2024-03-02T04:05:07;7.10;99.90
19206;DHT22;59358;52.134;5.596;2024-03-02T04:07:36;7.10;99.90
19206;DHT22;59358;52.134;5.596;2024-03-02T04:10:07;7.10;99.90
19206;DHT22;59358;52.134;5.596;2024-03-02T04:12:35;7.10;99.90
19206;DHT22;59358;52.134;5.596;2024-03-02T04:15:04;7.20;99.90
19206;DHT22;59358;52.134;5.596;2024-03-02T04:17:32;7.20;99.90
19206;DHT22;59358;52.134;5.596;2024-03-02T04:20:02;7.10;99.90
19206;DHT22;59358;52.134;5.596;2024-03-02T04:22:33;7.20;99.90
19206;DHT22;59358;52.134;5.596;2024-03-02T04:25:00;7.20;99.90
19206;DHT22;59358;52.134;5.596;2024-03-02T04:27:27;7.20;99.90
19206;DHT22;59358;52.134;5.596;2024-03-02T04:29:53;7.20;99.90
19206;DHT22;59358;52.134;5.596;2024-03-02T04:32:20;7.20;99.90
19206;DHT22;59358;52.134;5.596;2024-03-02T04:34:47;7.20;99.90
19206;DHT22;59358;52.134;5.596;2024-03-02T04:37:14;7.20;99.90
19206;DHT22;59358;52.134;5.596;2024-03-02T04:39:42;7.20;99.90
19206;DHT22;59358;52.134;5.596;2024-03-02T04:42:09;7.10;99.90
19206;DHT22;59358;52.134;5.596;2024-03-02T04:44:36;7.10;99.90
19206;DHT22;59358;52.134;5.596;2024-03-02T04:47:03;7.10;99.90
19206;DHT22;59358;52.134;5.596;2024-03-02T04:49:30;7.10;99.90
19206;DHT22;59358;52.134;5.596;2024-03-02T04:51:57;7.10;99.90
19206;DHT22;59358;52.134;5.596;2024-03-02T04:54:24;7.00;99.90
19206;DHT22;59358;52.134;5.596;2024-03-02T04:56:52;7.00;99.90
19206;DHT22;59358;52.134;5.596;2024-03-02T04:59:19;6.90;99.90
19206;DHT22;59358;52.134;5.596;2024-03-02T05:01:46;6.90;99.90
19206;DHT22;59358;52.134;5.596;2024-03-02T05:04:13;6.90;99.90
19206;DHT22;59358;52.134;5.596;2024-03-02T05:06:39;6.90;99.90
19206;DHT22;59358;52.134;5.596;2024-03-02T05:09:06;6.90;99.90
19206;DHT22;59358;52.134;5.596;2024-03-02T05:11:34;6.90;99.90
19206;DHT22;59358;52.134;5.596;2024-03-02T05:14:29;6.90;99.90
19206;DHT22;59358;52.134;5.596;2024-03-02T05:16:56;7.00;99.90
19206;DHT22;59358;52.134;5.596;2024-03-02T05:19:23;7.00;99.90
19206;DHT22;59358;52.134;5.596;2024-03-02T05:21:50;7.10;99.90
19206;DHT22;59358;52.134;5.596;2024-03-02T05:24:17;7.20;99.90
19206;DHT22;59358;52.134;5.596;2024-03-02T05:26:44;7.10;99.90
19206;DHT22;59358;52.134;5.596;2024-03-02T05:29:11;7.20;99.90
19206;DHT22;59358;52.134;5.596;2024-03-02T05:31:39;7.20;99.90
19206;DHT22;59358;52.134;5.596;2024-03-02T05:34:06;7.20;99.90
19206;DHT22;59358;52.134;5.596;2024-03-02T05:36:33;7.20;99.90
19206;DHT22;59358;52.134;5.596;2024-03-02T05:38:59;7.20;99.90
19206;DHT22;59358;52.134;5.596;2024-03-02T05:41:26;7.20;99.90
19206;DHT22;59358;52.134;5.596;2024-03-02T05:43:53;7.20;99.90
19206;DHT22;59358;52.134;5.596;2024-03-02T05:46:20;7.20;99.90
19206;DHT22;59358;52.134;5.596;2024-03-02T05:48:49;7.20;99.90
19206;DHT22;59358;52.134;5.596;2024-03-02T05:51:16;7.10;99.90
19206;DHT22;59358;52.134;5.596;2024-03-02T05:53:43;7.20;99.90
19206;DHT22;59358;52.134;5.596;2024-03-02T05:56:09;7.20;99.90
19206;DHT22;59358;52.134;5.596;2024-03-02T05:58:37;7.30;99.90
19206;DHT22;59358;52.134;5.596;2024-03-02T06:01:15;7.20;99.90
19206;DHT22;59358;52.134;5.596;2024-03-02T06:03:43;7.30;99.90
19206;DHT22;59358;52.134;5.596;2024-03-02T06:06:11;7.20;99.90
19206;DHT22;59358;52.134;5.596;2024-03-02T06:08:38;7.10;99.90
19206;DHT22;59358;52.134;5.596;2024-03-02T06:11:05;7.00;99.90
19206;DHT22;59358;52.134;5.596;2024-03-02T06:13:32;6.80;99.90
19206;DHT22;59358;52.134;5.596;2024-03-02T06:15:58;6.70;99.90
19206;DHT22;59358;52.134;5.596;2024-03-02T06:18:25;6.60;99.90
19206;DHT22;59358;52.134;5.596;2024-03-02T06:20:53;6.60;99.90
19206;DHT22;59358;52.134;5.596;2024-03-02T06:23:21;6.50;99.90
19206;DHT22;59358;52.134;5.596;2024-03-02T06:25:48;6.50;99.90
19206;DHT22;59358;52.134;5.596;2024-03-02T06:28:14;6.40;99.90
19206;DHT22;59358;52.134;5.596;2024-03-02T06:30:41;6.30;99.90
19206;DHT22;59358;52.134;5.596;2024-03-02T06:33:08;6.30;99.90
19206;DHT22;59358;52.134;5.596;2024-03-02T06:35:35;6.20;99.90
19206;DHT22;59358;52.134;5.596;2024-03-02T06:38:02;6.20;99.90
19206;DHT22;59358;52.134;5.596;2024-03-02T06:40:30;6.30;99.90
19206;DHT22;59358;52.134;5.596;2024-03-02T06:42:57;6.30;99.90
19206;DHT22;59358;52.134;5.596;2024-03-02T06:45:24;6.20;99.90
19206;DHT22;59358;52.134;5.596;2024-03-02T06:47:51;6.20;99.90
19206;DHT22;59358;52.134;5.596;2024-03-02T06:50:17;6.20;99.90
19206;DHT22;59358;52.134;5.596;2024-03-02T06:52:44;6.30;99.90
19206;DHT22;59358;52.134;5.596;2024-03-02T06:55:11;6.40;99.90
19206;DHT22;59358;52.134;5.596;2024-03-02T06:57:39;6.50;99.90
19206;DHT22;59358;52.134;5.596;2024-03-02T07:00:08;6.50;99.90
19206;DHT22;59358;52.134;5.596;2024-03-02T07:02:35;6.60;99.90
19206;DHT22;59358;52.134;5.596;2024-03-02T07:05:02;6.60;99.90
19206;DHT22;59358;52.134;5.596;2024-03-02T07:07:29;6.60;99.90
19206;DHT22;59358;52.134;5.596;2024-03-02T07:09:57;6.60;99.90
19206;DHT22;59358;52.134;5.596;2024-03-02T07:12:24;6.60;99.90
19206;DHT22;59358;52.134;5.596;2024-03-02T07:14:52;6.60;99.90
19206;DHT22;59358;52.134;5.596;2024-03-02T07:17:50;6.70;99.90
19206;DHT22;59358;52.134;5.596;2024-03-02T07:20:17;6.70;99.90
19206;DHT22;59358;52.134;5.596;2024-03-02T07:22:44;6.80;99.90
19206;DHT22;59358;52.134;5.596;2024-03-02T07:25:10;6.80;99.90
19206;DHT22;59358;52.134;5.596;2024-03-02T07:27:37;6.80;99.90
19206;DHT22;59358;52.134;5.596;2024-03-02T07:30:07;6.90;99.90
19206;DHT22;59358;52.134;5.596;2024-03-02T07:32:33;6.90;99.90
19206;DHT22;59358;52.134;5.596;2024-03-02T07:35:00;7.00;99.90
19206;DHT22;59358;52.134;5.596;2024-03-02T07:37:29;7.20;99.90
19206;DHT22;59358;52.134;5.596;2024-03-02T07:39:56;7.30;99.90
19206;DHT22;59358;52.134;5.596;2024-03-02T07:42:23;7.40;99.90
19206;DHT22;59358;52.134;5.596;2024-03-02T07:44:50;7.50;99.90
19206;DHT22;59358;52.134;5.596;2024-03-02T07:47:18;7.70;99.90
19206;DHT22;59358;52.134;5.596;2024-03-02T07:49:45;7.70;99.90
19206;DHT22;59358;52.134;5.596;2024-03-02T07:52:12;7.80;99.90
19206;DHT22;59358;52.134;5.596;2024-03-02T07:54:39;7.90;99.90
19206;DHT22;59358;52.134;5.596;2024-03-02T07:57:06;8.00;99.90
19206;DHT22;59358;52.134;5.596;2024-03-02T07:59:34;8.10;99.90
19206;DHT22;59358;52.134;5.596;2024-03-02T08:02:00;8.20;99.90
19206;DHT22;59358;52.134;5.596;2024-03-02T08:04:29;8.30;99.90
19206;DHT22;59358;52.134;5.596;2024-03-02T08:06:56;8.20;99.90
19206;DHT22;59358;52.134;5.596;2024-03-02T08:09:23;8.30;99.90
19206;DHT22;59358;52.134;5.596;2024-03-02T08:11:49;8.40;99.90
19206;DHT22;59358;52.134;5.596;2024-03-02T08:14:16;8.40;99.90
19206;DHT22;59358;52.134;5.596;2024-03-02T08:16:43;8.30;99.90
19206;DHT22;59358;52.134;5.596;2024-03-02T08:19:10;8.30;99.90
19206;DHT22;59358;52.134;5.596;2024-03-02T08:21:38;8.20;99.90
19206;DHT22;59358;52.134;5.596;2024-03-02T08:24:06;8.30;99.90
19206;DHT22;59358;52.134;5.596;2024-03-02T08:26:33;8.40;99.90
19206;DHT22;59358;52.134;5.596;2024-03-02T08:29:01;8.40;99.90
19206;DHT22;59358;52.134;5.596;2024-03-02T08:31:29;8.30;99.90
19206;DHT22;59358;52.134;5.596;2024-03-02T08:33:55;8.30;99.90
19206;DHT22;59358;52.134;5.596;2024-03-02T08:36:26;8.30;99.90
19206;DHT22;59358;52.134;5.596;2024-03-02T08:38:54;8.20;99.90
19206;DHT22;59358;52.134;5.596;2024-03-02T08:41:21;8.20;99.90
19206;DHT22;59358;52.134;5.596;2024-03-02T08:43:48;8.30;99.90
19206;DHT22;59358;52.134;5.596;2024-03-02T08:46:14;8.40;99.90
19206;DHT22;59358;52.134;5.596;2024-03-02T08:48:41;8.50;99.90
19206;DHT22;59358;52.134;5.596;2024-03-02T08:51:08;8.60;99.90
19206;DHT22;59358;52.134;5.596;2024-03-02T08:53:35;8.80;99.90
19206;DHT22;59358;52.134;5.596;2024-03-02T08:56:05;8.90;99.90
19206;DHT22;59358;52.134;5.596;2024-03-02T08:58:32;9.00;99.90
19206;DHT22;59358;52.134;5.596;2024-03-02T09:00:58;9.00;99.90
19206;DHT22;59358;52.134;5.596;2024-03-02T09:03:25;9.30;99.90
19206;DHT22;59358;52.134;5.596;2024-03-02T09:05:52;9.40;99.90
19206;DHT22;59358;52.134;5.596;2024-03-02T09:08:19;9.50;99.90
19206;DHT22;59358;52.134;5.596;2024-03-02T09:10:46;9.50;99.90
19206;DHT22;59358;52.134;5.596;2024-03-02T09:13:14;9.50;99.90
19206;DHT22;59358;52.134;5.596;2024-03-02T09:15:41;9.60;99.90
19206;DHT22;59358;52.134;5.596;2024-03-02T09:18:08;9.70;99.90
19206;DHT22;59358;52.134;5.596;2024-03-02T09:20:35;9.80;99.90
19206;DHT22;59358;52.134;5.596;2024-03-02T09:23:02;9.80;99.90
19206;DHT22;59358;52.134;5.596;2024-03-02T09:25:28;9.70;99.90
19206;DHT22;59358;52.134;5.596;2024-03-02T09:27:55;9.80;99.90
19206;DHT22;59358;52.134;5.596;2024-03-02T09:30:24;9.70;99.90
19206;DHT22;59358;52.134;5.596;2024-03-02T09:32:50;9.90;99.90
19206;DHT22;59358;52.134;5.596;2024-03-02T09:35:17;10.00;99.90
19206;DHT22;59358;52.134;5.596;2024-03-02T09:37:44;10.00;99.90
19206;DHT22;59358;52.134;5.596;2024-03-02T09:40:13;10.20;99.90
19206;DHT22;59358;52.134;5.596;2024-03-02T09:42:45;10.30;99.90
19206;DHT22;59358;52.134;5.596;2024-03-02T09:45:17;10.50;99.90
19206;DHT22;59358;52.134;5.596;2024-03-02T09:47:46;10.60;99.90
19206;DHT22;59358;52.134;5.596;2024-03-02T09:50:13;10.60;99.90
19206;DHT22;59358;52.134;5.596;2024-03-02T09:52:40;10.60;99.90
19206;DHT22;59358;52.134;5.596;2024-03-02T09:55:09;10.80;99.90
19206;DHT22;59358;52.134;5.596;2024-03-02T09:57:35;10.90;99.90
19206;DHT22;59358;52.134;5.596;2024-03-02T10:00:03;10.80;99.90
19206;DHT22;59358;52.134;5.596;2024-03-02T10:02:30;10.80;99.90
19206;DHT22;59358;52.134;5.596;2024-03-02T10:04:58;10.90;99.90
19206;DHT22;59358;52.134;5.596;2024-03-02T10:07:25;10.90;99.90
19206;DHT22;59358;52.134;5.596;2024-03-02T10:09:51;11.00;99.90
19206;DHT22;59358;52.134;5.596;2024-03-02T10:12:18;11.10;99.90
19206;DHT22;59358;52.134;5.596;2024-03-02T10:14:45;11.10;99.90
19206;DHT22;59358;52.134;5.596;2024-03-02T10:17:14;11.00;99.90
19206;DHT22;59358;52.134;5.596;2024-03-02T10:19:43;11.20;99.90
19206;DHT22;59358;52.134;5.596;2024-03-02T10:22:11;11.40;99.90
19206;DHT22;59358;52.134;5.596;2024-03-02T10:24:40;11.60;99.90
19206;DHT22;59358;52.134;5.596;2024-03-02T10:27:08;11.90;99.90
19206;DHT22;59358;52.134;5.596;2024-03-02T10:29:39;11.90;99.90
19206;DHT22;59358;52.134;5.596;2024-03-02T10:32:08;11.80;99.90
19206;DHT22;59358;52.134;5.596;2024-03-02T10:34:36;11.90;99.90
19206;DHT22;59358;52.134;5.596;2024-03-02T10:37:03;12.00;99.90
19206;DHT22;59358;52.134;5.596;2024-03-02T10:39:34;12.00;99.90
19206;DHT22;59358;52.134;5.596;2024-03-02T10:42:06;12.10;99.90
19206;DHT22;59358;52.134;5.596;2024-03-02T10:44:33;12.10;99.90
19206;DHT22;59358;52.134;5.596;2024-03-02T10:47:01;12.10;99.90
19206;DHT22;59358;52.134;5.596;2024-03-02T10:49:29;12.20;99.90
19206;DHT22;59358;52.134;5.596;2024-03-02T10:51:56;12.30;99.90
19206;DHT22;59358;52.134;5.596;2024-03-02T10:54:23;12.30;99.90
19206;DHT22;59358;52.134;5.596;2024-03-02T10:56:54;12.20;99.90
19206;DHT22;59358;52.134;5.596;2024-03-02T10:59:27;12.20;99.90
19206;DHT22;59358;52.134;5.596;2024-03-02T11:01:56;12.20;99.90
19206;DHT22;59358;52.134;5.596;2024-03-02T11:04:25;12.20;99.90
19206;DHT22;59358;52.134;5.596;2024-03-02T11:06:54;12.30;99.90
19206;DHT22;59358;52.134;5.596;2024-03-02T11:09:26;12.40;99.90
19206;DHT22;59358;52.134;5.596;2024-03-02T11:12:02;12.50;99.90
19206;DHT22;59358;52.134;5.596;2024-03-02T11:14:31;12.70;99.90
19206;DHT22;59358;52.134;5.596;2024-03-02T11:17:00;12.90;99.90
19206;DHT22;59358;52.134;5.596;2024-03-02T11:19:29;12.80;99.90
19206;DHT22;59358;52.134;5.596;2024-03-02T11:21:57;12.50;99.90
19206;DHT22;59358;52.134;5.596;2024-03-02T11:24:33;12.60;99.90
19206;DHT22;59358;52.134;5.596;2024-03-02T11:27:03;12.80;99.90
19206;DHT22;59358;52.134;5.596;2024-03-02T11:29:45;12.90;99.90
19206;DHT22;59358;52.134;5.596;2024-03-02T11:32:20;12.90;99.90
19206;DHT22;59358;52.134;5.596;2024-03-02T11:34:49;13.00;99.90
19206;DHT22;59358;52.134;5.596;2024-03-02T11:37:16;12.90;99.90
19206;DHT22;59358;52.134;5.596;2024-03-02T11:39:44;13.20;99.90
19206;DHT22;59358;52.134;5.596;2024-03-02T11:42:14;13.30;99.90
19206;DHT22;59358;52.134;5.596;2024-03-02T11:44:44;13.30;99.90
19206;DHT22;59358;52.134;5.596;2024-03-02T11:47:15;13.40;99.90
19206;DHT22;59358;52.134;5.596;2024-03-02T11:49:44;13.40;99.90
19206;DHT22;59358;52.134;5.596;2024-03-02T11:52:13;13.30;99.90
19206;DHT22;59358;52.134;5.596;2024-03-02T11:54:42;13.40;99.90
19206;DHT22;59358;52.134;5.596;2024-03-02T11:57:15;13.60;99.90
19206;DHT22;59358;52.134;5.596;2024-03-02T11:59:42;13.80;99.90
19206;DHT22;59358;52.134;5.596;2024-03-02T12:02:15;13.90;99.90
19206;DHT22;59358;52.134;5.596;2024-03-02T12:04:43;14.00;99.90
19206;DHT22;59358;52.134;5.596;2024-03-02T12:07:13;13.90;99.90
19206;DHT22;59358;52.134;5.596;2024-03-02T12:09:46;13.70;99.90
19206;DHT22;59358;52.134;5.596;2024-03-02T12:12:15;13.80;99.90
19206;DHT22;59358;52.134;5.596;2024-03-02T12:14:50;13.70;99.90
19206;DHT22;59358;52.134;5.596;2024-03-02T12:17:21;13.70;99.90
19206;DHT22;59358;52.134;5.596;2024-03-02T12:19:48;13.70;99.90
19206;DHT22;59358;52.134;5.596;2024-03-02T12:22:15;13.50;99.90
19206;DHT22;59358;52.134;5.596;2024-03-02T12:24:43;13.40;99.90
19206;DHT22;59358;52.134;5.596;2024-03-02T12:27:11;13.40;99.90
19206;DHT22;59358;52.134;5.596;2024-03-02T12:29:40;13.40;99.90
19206;DHT22;59358;52.134;5.596;2024-03-02T12:32:08;13.50;99.90
19206;DHT22;59358;52.134;5.596;2024-03-02T12:34:35;13.50;99.90
19206;DHT22;59358;52.134;5.596;2024-03-02T12:37:02;13.70;99.90
19206;DHT22;59358;52.134;5.596;2024-03-02T12:39:29;13.80;99.90
19206;DHT22;59358;52.134;5.596;2024-03-02T12:41:58;14.10;99.90
19206;DHT22;59358;52.134;5.596;2024-03-02T12:44:25;14.40;99.90
19206;DHT22;59358;52.134;5.596;2024-03-02T12:46:53;14.40;99.90
19206;DHT22;59358;52.134;5.596;2024-03-02T12:49:22;14.30;99.90
19206;DHT22;59358;52.134;5.596;2024-03-02T12:51:49;14.40;99.90
19206;DHT22;59358;52.134;5.596;2024-03-02T12:54:22;14.50;99.90
19206;DHT22;59358;52.134;5.596;2024-03-02T12:56:50;14.40;99.90
19206;DHT22;59358;52.134;5.596;2024-03-02T12:59:21;14.30;99.90
19206;DHT22;59358;52.134;5.596;2024-03-02T13:01:53;14.10;99.90
19206;DHT22;59358;52.134;5.596;2024-03-02T13:04:23;13.90;99.90
19206;DHT22;59358;52.134;5.596;2024-03-02T13:06:51;14.00;99.90
19206;DHT22;59358;52.134;5.596;2024-03-02T13:09:18;14.00;99.90
19206;DHT22;59358;52.134;5.596;2024-03-02T13:11:46;14.20;99.90
19206;DHT22;59358;52.134;5.596;2024-03-02T13:14:13;14.20;99.90
19206;DHT22;59358;52.134;5.596;2024-03-02T13:16:40;14.40;99.90
19206;DHT22;59358;52.134;5.596;2024-03-02T13:19:08;14.50;99.90
19206;DHT22;59358;52.134;5.596;2024-03-02T13:21:35;14.50;99.90
19206;DHT22;59358;52.134;5.596;2024-03-02T13:24:03;14.60;99.90
19206;DHT22;59358;52.134;5.596;2024-03-02T13:26:30;14.60;99.90
19206;DHT22;59358;52.134;5.596;2024-03-02T13:28:57;14.70;99.90
19206;DHT22;59358;52.134;5.596;2024-03-02T13:31:24;14.60;99.90
19206;DHT22;59358;52.134;5.596;2024-03-02T13:33:50;14.70;99.90
19206;DHT22;59358;52.134;5.596;2024-03-02T13:36:18;14.80;99.90
19206;DHT22;59358;52.134;5.596;2024-03-02T13:38:45;14.70;99.90
19206;DHT22;59358;52.134;5.596;2024-03-02T13:41:12;14.70;99.90
19206;DHT22;59358;52.134;5.596;2024-03-02T13:43:39;14.60;99.90
19206;DHT22;59358;52.134;5.596;2024-03-02T13:46:06;14.70;99.90
19206;DHT22;59358;52.134;5.596;2024-03-02T13:48:33;14.80;99.90
19206;DHT22;59358;52.134;5.596;2024-03-02T13:50:59;14.80;99.90
19206;DHT22;59358;52.134;5.596;2024-03-02T13:53:27;14.90;99.90
19206;DHT22;59358;52.134;5.596;2024-03-02T13:55:54;14.90;99.90
19206;DHT22;59358;52.134;5.596;2024-03-02T13:58:21;14.90;99.90
19206;DHT22;59358;52.134;5.596;2024-03-02T14:00:48;14.90;99.90
19206;DHT22;59358;52.134;5.596;2024-03-02T14:03:15;14.90;99.90
19206;DHT22;59358;52.134;5.596;2024-03-02T14:05:43;15.00;99.90
19206;DHT22;59358;52.134;5.596;2024-03-02T14:08:11;15.10;99.90
19206;DHT22;59358;52.134;5.596;2024-03-02T14:10:39;15.00;99.90
19206;DHT22;59358;52.134;5.596;2024-03-02T14:13:08;14.90;99.90
19206;DHT22;59358;52.134;5.596;2024-03-02T14:15:35;14.90;99.90
19206;DHT22;59358;52.134;5.596;2024-03-02T14:18:05;14.80;99.90
19206;DHT22;59358;52.134;5.596;2024-03-02T14:20:32;14.90;99.90
19206;DHT22;59358;52.134;5.596;2024-03-02T14:22:59;15.10;99.90
19206;DHT22;59358;52.134;5.596;2024-03-02T14:25:26;15.10;99.90
19206;DHT22;59358;52.134;5.596;2024-03-02T14:27:57;15.10;99.90
19206;DHT22;59358;52.134;5.596;2024-03-02T14:30:24;14.80;99.90
19206;DHT22;59358;52.134;5.596;2024-03-02T14:32:51;14.80;99.90
19206;DHT22;59358;52.134;5.596;2024-03-02T14:35:18;14.80;99.90
19206;DHT22;59358;52.134;5.596;2024-03-02T14:37:45;14.80;99.90
19206;DHT22;59358;52.134;5.596;2024-03-02T14:40:12;14.80;99.90
19206;DHT22;59358;52.134;5.596;2024-03-02T14:42:39;14.70;99.90
19206;DHT22;59358;52.134;5.596;2024-03-02T14:45:09;14.70;99.90
19206;DHT22;59358;52.134;5.596;2024-03-02T14:47:36;14.80;99.90
19206;DHT22;59358;52.134;5.596;2024-03-02T14:50:03;15.00;99.90
19206;DHT22;59358;52.134;5.596;2024-03-02T14:52:31;15.20;99.90
19206;DHT22;59358;52.134;5.596;2024-03-02T14:54:58;14.90;99.90
19206;DHT22;59358;52.134;5.596;2024-03-02T14:57:25;15.00;99.90
19206;DHT22;59358;52.134;5.596;2024-03-02T14:59:52;14.80;99.90
19206;DHT22;59358;52.134;5.596;2024-03-02T15:02:21;14.60;99.90
19206;DHT22;59358;52.134;5.596;2024-03-02T15:04:48;14.40;99.90
19206;DHT22;59358;52.134;5.596;2024-03-02T15:07:15;14.20;99.90
19206;DHT22;59358;52.134;5.596;2024-03-02T15:09:42;14.10;99.90
19206;DHT22;59358;52.134;5.596;2024-03-02T15:12:10;14.20;99.90
19206;DHT22;59358;52.134;5.596;2024-03-02T15:14:38;14.20;99.90
19206;DHT22;59358;52.134;5.596;2024-03-02T15:17:12;14.20;99.90
19206;DHT22;59358;52.134;5.596;2024-03-02T15:19:42;14.30;99.90
19206;DHT22;59358;52.134;5.596;2024-03-02T15:22:09;14.40;99.90
19206;DHT22;59358;52.134;5.596;2024-03-02T15:24:37;14.50;99.90
19206;DHT22;59358;52.134;5.596;2024-03-02T15:27:04;14.60;99.90
19206;DHT22;59358;52.134;5.596;2024-03-02T15:29:33;14.80;99.90
19206;DHT22;59358;52.134;5.596;2024-03-02T15:32:01;14.90;99.90
19206;DHT22;59358;52.134;5.596;2024-03-02T15:34:30;14.80;99.90
19206;DHT22;59358;52.134;5.596;2024-03-02T15:36:58;14.80;99.90
19206;DHT22;59358;52.134;5.596;2024-03-02T15:39:26;14.80;99.90
19206;DHT22;59358;52.134;5.596;2024-03-02T15:41:52;14.90;99.90
19206;DHT22;59358;52.134;5.596;2024-03-02T15:44:19;14.80;99.90